Time;durP1;ratioP1;P1;durP2;ratioP2;P2;SDS_P1;SDS_P2;PMS_P1;PMS_P2;Temp;Humidity;BMP_temperature;BMP_pressure;BME280_temperature;BME280_humidity;BME280_pressure;Samples;Min_cycle;Max_cycle;Signal;HPM_P1;HPM_P2
2022/06/30 00:00:39;;;;;;;7.87;7.20;;;19.30;99.90;;;;;;5034652;28;20187;-66
2022/06/30 00:03:06;;;;;;;10.00;6.97;;;19.20;99.90;;;;;;5051211;28;20225;-66
2022/06/30 00:05:31;;;;;;;7.60;6.83;;;19.10;99.90;;;;;;5032090;28;20261;-65
2022/06/30 00:07:57;;;;;;;7.77;7.00;;;19.00;99.90;;;;;;5031814;28;20700;-66
2022/06/30 00:10:23;;;;;;;7.97;7.37;;;18.90;99.90;;;;;;5048942;28;20183;-65
2022/06/30 00:12:48;;;;;;;8.23;7.23;;;18.90;99.90;;;;;;5051653;28;20194;-65
2022/06/30 00:15:14;;;;;;;7.67;6.90;;;18.90;99.90;;;;;;5035652;28;20204;-66
2022/06/30 00:17:40;;;;;;;8.70;8.00;;;18.90;99.90;;;;;;5032016;28;20179;-66
2022/06/30 00:20:06;;;;;;;8.30;7.70;;;18.90;99.90;;;;;;5049294;28;20339;-65
2022/06/30 00:22:32;;;;;;;9.60;8.10;;;18.80;99.90;;;;;;5056112;28;20201;-66
2022/06/30 00:24:58;;;;;;;8.90;8.03;;;18.80;99.90;;;;;;5053961;28;20218;-65
2022/06/30 00:27:23;;;;;;;8.60;7.80;;;18.80;99.90;;;;;;5056297;28;20177;-65
2022/06/30 00:29:49;;;;;;;9.23;8.43;;;18.80;99.90;;;;;;5043788;28;20183;-65
2022/06/30 00:32:14;;;;;;;10.27;9.27;;;18.80;99.90;;;;;;5036645;28;20191;-66
2022/06/30 00:34:40;;;;;;;9.70;8.90;;;18.70;99.90;;;;;;5046086;28;20711;-65
2022/06/30 00:37:06;;;;;;;9.67;8.77;;;18.70;99.90;;;;;;5055672;28;20203;-65
2022/06/30 00:39:31;;;;;;;9.83;8.53;;;18.70;99.90;;;;;;5046461;28;20182;-65
2022/06/30 00:41:57;;;;;;;9.40;8.50;;;18.60;99.90;;;;;;5035399;28;20176;-65
2022/06/30 00:44:23;;;;;;;9.57;8.67;;;18.50;99.90;;;;;;5041161;28;20671;-65
2022/06/30 00:46:49;;;;;;;11.57;8.37;;;18.40;99.90;;;;;;5051481;28;20203;-65
2022/06/30 00:49:17;;;;;;;9.83;8.90;;;18.50;99.90;;;;;;5035114;28;20184;-64
2022/06/30 00:51:43;;;;;;;9.07;8.33;;;18.50;99.90;;;;;;5038935;28;20202;-64
2022/06/30 00:54:11;;;;;;;9.10;8.40;;;18.40;99.90;;;;;;5055267;28;20171;-65
2022/06/30 00:56:42;;;;;;;8.77;7.90;;;18.30;99.90;;;;;;5052581;28;20671;-64
2022/06/30 00:59:09;;;;;;;9.70;8.90;;;18.30;99.90;;;;;;5035095;28;20238;-66
2022/06/30 01:01:36;;;;;;;10.77;9.67;;;18.30;99.90;;;;;;5035984;28;20578;-65
2022/06/30 01:04:02;;;;;;;10.10;9.20;;;18.20;99.90;;;;;;5054598;28;20171;-64
2022/06/30 01:06:29;;;;;;;11.13;10.30;;;18.20;99.90;;;;;;5054778;28;20191;-65
2022/06/30 01:08:55;;;;;;;9.93;8.93;;;18.20;99.90;;;;;;5054444;28;20171;-64
2022/06/30 01:14:04;;;;;;;9.70;8.90;;;18.20;99.90;;;;;;5034419;28;20190;-65
2022/06/30 01:16:30;;;;;;;10.47;9.40;;;18.20;99.90;;;;;;5034583;28;20195;-65
2022/06/30 01:18:56;;;;;;;10.93;10.00;;;18.20;99.90;;;;;;5035285;28;20179;-65
2022/06/30 01:21:26;;;;;;;9.83;8.93;;;18.30;99.90;;;;;;5034488;28;20238;-65
2022/06/30 01:23:51;;;;;;;9.47;8.43;;;18.30;99.90;;;;;;5051315;28;20651;-64
2022/06/30 01:26:17;;;;;;;9.63;8.67;;;18.30;99.90;;;;;;5053772;28;20203;-65
2022/06/30 01:28:43;;;;;;;10.43;9.43;;;18.30;99.90;;;;;;5038212;28;20183;-65
2022/06/30 01:31:08;;;;;;;9.20;8.20;;;18.40;99.90;;;;;;5032581;28;20171;-65
2022/06/30 01:33:34;;;;;;;9.97;8.60;;;18.40;99.90;;;;;;5046789;28;20210;-65
2022/06/30 01:36:00;;;;;;;9.73;8.60;;;18.40;99.90;;;;;;5053752;28;20182;-64
2022/06/30 01:38:25;;;;;;;10.20;9.20;;;18.40;99.90;;;;;;5041579;28;20190;-65
2022/06/30 01:40:51;;;;;;;10.63;9.73;;;18.40;99.90;;;;;;5033849;28;20179;-64
2022/06/30 01:43:17;;;;;;;12.33;9.97;;;18.40;99.90;;;;;;5043228;28;20194;-65
2022/06/30 01:45:42;;;;;;;11.43;8.80;;;18.40;99.90;;;;;;5047525;28;20688;-64
2022/06/30 01:48:09;;;;;;;9.93;9.07;;;18.40;99.90;;;;;;5033661;28;20175;-64
2022/06/30 01:50:35;;;;;;;11.17;10.37;;;18.30;99.90;;;;;;5037190;28;20179;-65
2022/06/30 01:53:01;;;;;;;13.33;10.53;;;18.20;99.90;;;;;;5052660;28;20191;-64
2022/06/30 01:55:28;;;;;;;10.53;9.57;;;18.10;99.90;;;;;;5051994;28;20245;-64
2022/06/30 01:57:54;;;;;;;14.20;10.37;;;18.00;99.90;;;;;;5053395;28;20178;-65
2022/06/30 02:00:26;;;;;;;11.30;10.07;;;17.90;99.90;;;;;;5034290;28;20183;-64
2022/06/30 02:02:53;;;;;;;12.10;10.17;;;17.80;99.90;;;;;;5033507;28;20179;-65
2022/06/30 02:05:20;;;;;;;13.53;10.80;;;17.80;99.90;;;;;;5050720;28;20198;-65
2022/06/30 02:07:46;;;;;;;14.43;9.93;;;17.80;99.90;;;;;;5053472;28;20177;-64
2022/06/30 02:10:16;;;;;;;12.00;10.70;;;17.80;99.90;;;;;;5036589;28;20175;-66
2022/06/30 02:12:46;;;;;;;11.13;10.03;;;17.80;99.90;;;;;;5033103;28;20203;-65
2022/06/30 02:15:20;;;;;;;10.97;9.23;;;17.80;99.90;;;;;;5033667;28;20195;-65
2022/06/30 02:17:48;;;;;;;10.27;9.37;;;17.70;99.90;;;;;;5033069;28;20168;-64
2022/06/30 02:20:14;;;;;;;11.27;10.13;;;17.70;99.90;;;;;;5050648;28;20182;-66
2022/06/30 02:22:41;;;;;;;11.53;10.63;;;17.70;99.90;;;;;;5053656;28;20167;-65
2022/06/30 02:25:08;;;;;;;13.43;10.37;;;17.70;99.90;;;;;;5051336;28;20272;-66
2022/06/30 02:27:34;;;;;;;11.47;10.37;;;17.70;99.90;;;;;;5053446;28;20643;-64
2022/06/30 02:30:00;;;;;;;13.80;11.10;;;17.70;99.90;;;;;;5042727;28;20218;-65
2022/06/30 02:32:25;;;;;;;11.83;10.80;;;17.70;99.90;;;;;;5033114;28;20684;-66
2022/06/30 02:34:52;;;;;;;10.87;9.87;;;17.80;99.90;;;;;;5033324;28;20661;-66
2022/06/30 02:37:18;;;;;;;10.70;9.73;;;17.80;99.90;;;;;;5033357;28;20538;-64
2022/06/30 02:39:45;;;;;;;10.27;9.17;;;17.80;99.90;;;;;;5034767;28;20236;-64
2022/06/30 02:42:10;;;;;;;10.73;9.37;;;17.70;99.90;;;;;;5033280;28;20664;-64
2022/06/30 02:44:36;;;;;;;10.87;9.83;;;17.70;99.90;;;;;;5041418;28;20242;-66
2022/06/30 02:47:02;;;;;;;12.20;9.87;;;17.60;99.90;;;;;;5048565;28;20176;-65
2022/06/30 02:49:28;;;;;;;11.00;10.10;;;17.60;99.90;;;;;;5034379;28;20171;-65
2022/06/30 02:51:54;;;;;;;11.03;10.03;;;17.60;99.90;;;;;;5037594;28;20194;-66
2022/06/30 02:54:19;;;;;;;11.00;9.90;;;17.60;99.90;;;;;;5053331;28;20177;-65
2022/06/30 02:56:47;;;;;;;10.27;9.37;;;17.60;99.90;;;;;;5051373;28;20253;-65
2022/06/30 02:59:13;;;;;;;11.77;10.60;;;17.60;99.90;;;;;;5033764;28;20173;-65
2022/06/30 03:01:38;;;;;;;11.87;10.67;;;17.60;99.90;;;;;;5033370;28;20653;-65
2022/06/30 03:04:04;;;;;;;11.50;10.40;;;17.60;99.90;;;;;;5053152;28;20258;-66
2022/06/30 03:06:31;;;;;;;11.10;10.20;;;17.60;99.90;;;;;;5053112;28;20248;-65
2022/06/30 03:08:58;;;;;;;11.47;10.10;;;17.60;99.90;;;;;;5034337;28;20298;-66
2022/06/30 03:11:23;;;;;;;12.47;9.87;;;17.60;99.90;;;;;;5033273;28;20554;-65
2022/06/30 03:13:50;;;;;;;13.77;10.57;;;17.60;99.90;;;;;;5049569;28;20210;-65
2022/06/30 03:16:17;;;;;;;11.67;9.90;;;17.60;99.90;;;;;;5045362;28;20198;-65
2022/06/30 03:18:43;;;;;;;11.90;9.90;;;17.60;99.90;;;;;;5033139;28;20172;-65
2022/06/30 03:21:09;;;;;;;11.77;9.67;;;17.60;99.90;;;;;;5039282;28;20210;-66
2022/06/30 03:23:35;;;;;;;12.33;10.67;;;17.50;99.90;;;;;;5052614;28;20244;-65
2022/06/30 03:26:01;;;;;;;12.27;10.13;;;17.50;99.90;;;;;;5048959;28;20698;-66
2022/06/30 03:28:27;;;;;;;12.20;11.10;;;17.60;99.90;;;;;;5032771;28;20188;-66
2022/06/30 03:30:52;;;;;;;12.97;9.93;;;17.50;99.90;;;;;;5035243;28;20194;-65
2022/06/30 03:33:18;;;;;;;14.60;10.97;;;17.50;99.90;;;;;;5052034;28;20195;-64
2022/06/30 03:35:45;;;;;;;15.27;10.83;;;17.50;99.90;;;;;;5043138;28;20191;-65
2022/06/30 03:38:11;;;;;;;11.53;10.37;;;17.50;99.90;;;;;;5032530;28;20194;-65
2022/06/30 03:40:37;;;;;;;12.90;10.53;;;17.50;99.90;;;;;;5038834;28;20177;-65
2022/06/30 03:43:02;;;;;;;14.47;10.73;;;17.40;99.90;;;;;;5051700;28;20179;-66
2022/06/30 03:45:28;;;;;;;11.63;10.43;;;17.40;99.90;;;;;;5046287;28;20227;-66
2022/06/30 03:47:54;;;;;;;13.07;11.70;;;17.40;99.90;;;;;;5032275;28;20167;-66
2022/06/30 03:50:20;;;;;;;12.53;11.43;;;17.40;99.90;;;;;;5035669;28;20641;-66
2022/06/30 03:52:46;;;;;;;12.33;11.10;;;17.40;99.90;;;;;;5051932;28;20209;-66
2022/06/30 03:55:12;;;;;;;13.97;11.00;;;17.40;99.90;;;;;;5053461;28;20201;-66
2022/06/30 03:57:37;;;;;;;11.90;10.70;;;17.40;99.90;;;;;;5036252;28;20199;-66
2022/06/30 04:00:04;;;;;;;16.20;12.67;;;17.40;99.90;;;;;;5036054;28;20175;-64
2022/06/30 04:02:30;;;;;;;13.33;11.70;;;17.40;99.90;;;;;;5056442;28;20182;-66
2022/06/30 04:04:56;;;;;;;13.47;11.30;;;17.50;99.90;;;;;;5037377;28;20196;-66
2022/06/30 04:07:21;;;;;;;14.83;11.73;;;17.50;99.90;;;;;;5035986;28;20254;-65
2022/06/30 04:09:47;;;;;;;12.53;11.33;;;17.50;99.90;;;;;;5052228;28;20186;-65
2022/06/30 04:12:13;;;;;;;12.90;11.60;;;17.50;99.90;;;;;;5056093;28;20651;-65
2022/06/30 04:14:38;;;;;;;13.03;11.80;;;17.50;99.90;;;;;;5040841;28;20219;-66
2022/06/30 04:17:04;;;;;;;13.27;11.40;;;17.50;99.90;;;;;;5036682;28;20195;-66
2022/06/30 04:19:30;;;;;;;13.03;11.70;;;17.40;99.90;;;;;;5048844;28;20273;-65
2022/06/30 04:21:56;;;;;;;13.77;12.37;;;17.60;99.90;;;;;;5055842;28;20163;-65
2022/06/30 04:24:22;;;;;;;13.97;12.07;;;17.70;99.90;;;;;;5043843;28;20187;-65
2022/06/30 04:26:48;;;;;;;15.50;12.30;;;17.90;99.90;;;;;;5036443;28;20176;-65
2022/06/30 04:29:13;;;;;;;13.90;12.33;;;18.10;99.90;;;;;;5036273;28;20233;-66
2022/06/30 04:34:23;;;;;;;14.97;12.23;;;18.90;99.90;;;;;;5045263;28;20205;-65
2022/06/30 04:36:49;;;;;;;12.73;11.50;;;19.20;99.90;;;;;;5054965;28;20174;-66
2022/06/30 04:39:14;;;;;;;12.97;11.73;;;19.50;99.90;;;;;;5045999;28;20195;-66
2022/06/30 04:41:40;;;;;;;12.93;11.30;;;19.70;99.90;;;;;;5034897;28;20218;-64
2022/06/30 04:44:05;;;;;;;11.70;10.63;;;20.00;99.90;;;;;;5041208;28;20591;-65
2022/06/30 04:46:31;;;;;;;13.83;12.43;;;20.30;99.90;;;;;;5052330;28;20190;-66
2022/06/30 04:48:57;;;;;;;17.53;12.57;;;20.70;99.90;;;;;;5034972;28;20175;-66
2022/06/30 04:51:23;;;;;;;13.63;11.90;;;21.00;99.90;;;;;;5034493;28;20203;-66
2022/06/30 04:53:49;;;;;;;13.73;12.23;;;21.20;99.90;;;;;;5054213;28;20710;-66
2022/06/30 04:56:15;;;;;;;12.90;11.87;;;21.30;99.90;;;;;;5054465;28;20194;-66
2022/06/30 04:58:42;;;;;;;15.33;14.13;;;21.30;99.90;;;;;;5035504;28;20179;-66
2022/06/30 05:01:07;;;;;;;15.60;14.27;;;21.40;99.90;;;;;;5034526;28;20172;-66
2022/06/30 05:03:33;;;;;;;12.83;11.73;;;21.40;99.90;;;;;;5050914;28;20596;-66
2022/06/30 05:05:59;;;;;;;15.00;11.73;;;21.50;99.90;;;;;;5054016;28;20706;-66
2022/06/30 05:08:26;;;;;;;12.40;11.30;;;21.60;99.90;;;;;;5038593;28;20545;-66
2022/06/30 05:10:51;;;;;;;11.55;10.38;;;21.80;99.90;;;;;;5033152;28;20230;-66
2022/06/30 05:13:17;;;;;;;9.80;8.90;;;22.10;99.90;;;;;;5048508;28;20702;-66
2022/06/30 05:15:45;;;;;;;12.50;11.30;;;22.30;99.90;;;;;;5054872;28;20236;-66
2022/06/30 05:18:11;;;;;;;12.60;9.85;;;22.60;99.90;;;;;;5042657;28;20678;-65
2022/06/30 05:20:37;;;;;;;12.10;10.90;;;22.80;99.90;;;;;;5035327;28;20171;-65
2022/06/30 05:23:02;;;;;;;16.05;10.13;;;23.00;99.90;;;;;;5046534;28;20651;-65
2022/06/30 05:28:13;;;;;;;11.85;10.63;;;23.20;99.90;;;;;;5043891;28;20704;-66
2022/06/30 05:30:39;;;;;;;13.30;9.90;;;23.30;99.90;;;;;;5036320;28;20187;-66
2022/06/30 05:33:05;;;;;;;10.25;9.45;;;23.40;99.90;;;;;;5034836;28;20211;-66
2022/06/30 05:35:30;;;;;;;10.60;9.60;;;23.30;99.90;;;;;;5041378;28;20217;-66
2022/06/30 05:37:56;;;;;;;12.38;11.32;;;23.30;99.90;;;;;;5055520;28;20253;-67
2022/06/30 05:40:22;;;;;;;11.40;10.23;;;23.20;99.90;;;;;;5054505;28;20595;-66
2022/06/30 05:42:48;;;;;;;10.90;10.00;;;23.30;99.90;;;;;;5055375;28;20214;-66
2022/06/30 05:45:13;;;;;;;12.85;11.75;;;23.30;99.90;;;;;;5050914;28;20286;-65
2022/06/30 05:47:52;;;;;;;13.95;12.50;;;23.60;99.90;;;;;;5041403;28;20186;-67
2022/06/30 05:50:19;;;;;;;11.18;10.10;;;23.80;99.90;;;;;;5040748;28;20266;-66
2022/06/30 05:52:45;;;;;;;10.75;9.85;;;24.00;99.90;;;;;;5048394;28;20564;-66
2022/06/30 05:55:11;;;;;;;9.43;8.52;;;24.30;99.90;;;;;;5061061;28;20195;-66
2022/06/30 05:57:54;;;;;;;12.95;9.50;;;24.60;99.90;;;;;;5055385;28;20549;-66
2022/06/30 06:00:21;;;;;;;10.10;9.07;;;25.00;99.90;;;;;;5041540;28;20186;-65
2022/06/30 06:02:47;;;;;;;8.95;8.02;;;25.40;99.90;;;;;;5035109;28;20172;-66
2022/06/30 06:05:13;;;;;;;10.02;8.82;;;25.90;99.90;;;;;;5046106;28;20225;-66
2022/06/30 06:07:39;;;;;;;8.55;7.68;;;26.30;99.90;;;;;;5053677;28;20631;-65
2022/06/30 06:10:05;;;;;;;8.95;7.90;;;26.70;99.90;;;;;;5042743;28;20186;-66
2022/06/30 06:12:31;;;;;;;9.00;7.90;;;27.10;99.90;;;;;;5033467;28;20257;-66
2022/06/30 06:14:56;;;;;;;8.30;7.05;;;27.40;99.90;;;;;;5041772;28;20202;-65
2022/06/30 06:17:22;;;;;;;9.55;8.55;;;27.60;99.90;;;;;;5052464;28;20167;-65
2022/06/30 06:19:48;;;;;;;9.98;7.30;;;27.70;99.90;;;;;;5046021;28;20171;-66
2022/06/30 06:22:13;;;;;;;8.05;7.35;;;27.70;99.90;;;;;;5033221;28;20179;-66
2022/06/30 06:24:39;;;;;;;9.35;7.72;;;27.60;99.90;;;;;;5037734;28;20285;-65
2022/06/30 06:27:05;;;;;;;8.00;7.30;;;27.30;99.90;;;;;;5051315;28;20636;-65
2022/06/30 06:29:30;;;;;;;8.40;7.60;;;27.30;99.90;;;;;;5033143;28;20187;-65
2022/06/30 06:31:56;;;;;;;9.07;7.38;;;27.40;99.90;;;;;;5032933;28;20203;-66
2022/06/30 06:34:21;;;;;;;8.30;7.22;;;27.60;99.90;;;;;;5044485;28;20167;-65
2022/06/30 06:36:47;;;;;;;8.32;6.93;;;27.60;99.90;;;;;;5032857;28;20246;-65
2022/06/30 06:39:13;;;;;;;8.50;6.60;;;27.90;99.90;;;;;;5032894;28;20696;-65
2022/06/30 06:41:38;;;;;;;6.90;6.22;;;28.00;99.90;;;;;;5038858;28;20396;-66
2022/06/30 06:44:04;;;;;;;7.28;6.68;;;28.00;99.90;;;;;;5053030;28;20285;-66
2022/06/30 06:46:30;;;;;;;6.63;6.13;;;28.20;99.90;;;;;;5049273;28;20202;-66
2022/06/30 06:49:02;;;;;;;8.73;6.63;;;28.40;99.90;;;;;;5032783;28;20250;-65
2022/06/30 06:51:28;;;;;;;7.10;6.60;;;28.60;99.90;;;;;;5038484;28;20529;-66
2022/06/30 06:53:55;;;;;;;6.70;6.00;;;28.90;99.90;;;;;;5052037;28;20202;-65
2022/06/30 06:56:21;;;;;;;8.93;6.90;;;29.00;99.90;;;;;;5047426;28;20282;-65
2022/06/30 06:58:46;;;;;;;7.28;6.68;;;28.80;99.90;;;;;;5032371;28;20168;-65
2022/06/30 07:01:12;;;;;;;9.23;6.55;;;29.00;99.90;;;;;;5047758;28;20190;-65
2022/06/30 07:03:38;;;;;;;7.70;6.72;;;29.60;99.90;;;;;;5051895;28;20214;-66
2022/06/30 07:06:05;;;;;;;11.43;6.38;;;29.80;99.90;;;;;;5038096;28;20286;-65
2022/06/30 07:08:31;;;;;;;8.13;6.10;;;30.10;99.90;;;;;;5032064;28;20179;-66
2022/06/30 07:10:57;;;;;;;8.10;5.95;;;30.30;99.90;;;;;;5044336;28;20227;-66
2022/06/30 07:13:26;;;;;;;6.43;5.70;;;30.40;99.90;;;;;;5051504;28;20194;-65
2022/06/30 07:15:52;;;;;;;7.13;5.57;;;30.70;99.90;;;;;;5040693;28;20689;-65
2022/06/30 07:18:18;;;;;;;6.35;5.70;;;31.30;99.90;;;;;;5031926;28;20203;-65
2022/06/30 07:20:43;;;;;;;8.00;5.93;;;31.60;99.90;;;;;;5041108;28;20171;-66
2022/06/30 07:23:09;;;;;;;7.32;4.95;;;31.70;99.90;;;;;;5051844;28;20185;-66
2022/06/30 07:25:35;;;;;;;6.28;5.25;;;32.00;99.90;;;;;;5043107;28;20211;-64
2022/06/30 07:28:02;;;;;;;6.03;5.30;;;32.20;99.90;;;;;;5032215;28;20535;-65
2022/06/30 07:30:28;;;;;;;6.45;5.25;;;32.40;99.90;;;;;;5031660;28;20203;-65
2022/06/30 07:32:54;;;;;;;8.00;5.35;;;32.50;99.90;;;;;;5036579;28;20542;-63
2022/06/30 07:35:19;;;;;;;5.68;5.03;;;32.60;99.90;;;;;;5051353;28;20298;-64
2022/06/30 07:37:45;;;;;;;6.88;4.90;;;32.80;99.90;;;;;;5048241;28;20168;-65
2022/06/30 07:40:12;;;;;;;4.97;4.55;;;32.90;99.90;;;;;;5031872;28;20225;-64
2022/06/30 07:42:38;;;;;;;6.20;4.65;;;32.80;99.90;;;;;;5033404;28;20572;-65
2022/06/30 07:45:04;;;;;;;5.22;4.72;;;32.80;99.90;;;;;;5051328;28;20194;-64
2022/06/30 07:47:30;;;;;;;5.50;4.60;;;32.90;99.90;;;;;;5049391;28;20182;-65
2022/06/30 07:49:56;;;;;;;7.45;4.57;;;32.90;99.90;;;;;;5032170;28;20187;-65
2022/06/30 07:52:22;;;;;;;6.97;4.40;;;33.40;99.90;;;;;;5043437;28;20242;-65
2022/06/30 07:54:47;;;;;;;4.22;3.88;;;33.80;99.90;;;;;;5031265;28;20589;-65
2022/06/30 07:57:13;;;;;;;4.15;3.75;;;34.00;99.90;;;;;;5040157;28;20177;-65
2022/06/30 07:59:39;;;;;;;3.92;3.47;;;34.00;99.90;;;;;;5051527;28;20167;-64
2022/06/30 08:02:06;;;;;;;4.30;3.90;;;34.50;99.90;;;;;;5048422;28;20522;-65
2022/06/30 08:04:33;;;;;;;4.50;4.18;;;34.80;99.90;;;;;;5048289;28;20182;-66
2022/06/30 08:07:01;;;;;;;6.65;4.60;;;34.90;99.90;;;;;;5050245;28;20658;-66
2022/06/30 08:09:27;;;;;;;5.43;4.05;;;34.70;99.90;;;;;;5046171;28;20641;-66
2022/06/30 08:11:54;;;;;;;4.78;4.20;;;34.70;99.90;;;;;;5036626;28;20249;-66
2022/06/30 08:14:21;;;;;;;4.82;3.63;;;34.20;99.90;;;;;;5050834;28;20635;-66
2022/06/30 08:16:47;;;;;;;5.05;4.45;;;34.40;99.90;;;;;;5047887;28;20186;-66
2022/06/30 08:19:13;;;;;;;5.78;3.85;;;34.60;99.90;;;;;;5036444;28;20225;-66
2022/06/30 08:21:38;;;;;;;3.85;3.55;;;35.10;99.90;;;;;;5033025;28;20179;-67
2022/06/30 08:24:04;;;;;;;5.85;3.75;;;35.30;99.90;;;;;;5033147;28;20597;-65
2022/06/30 08:26:31;;;;;;;7.00;3.88;;;35.50;99.90;;;;;;5040159;28;20211;-64
2022/06/30 08:28:57;;;;;;;4.63;3.80;;;35.50;99.90;;;;;;5040788;28;20249;-65
2022/06/30 08:31:22;;;;;;;5.40;4.18;;;35.40;99.90;;;;;;5034470;28;20179;-65
2022/06/30 08:33:50;;;;;;;3.88;3.53;;;35.20;99.90;;;;;;5049644;28;20286;-65
2022/06/30 08:36:16;;;;;;;3.95;3.55;;;34.90;99.90;;;;;;5031335;28;20199;-65
2022/06/30 08:38:42;;;;;;;6.13;3.53;;;35.00;99.90;;;;;;5031394;28;20209;-65
2022/06/30 08:43:53;;;;;;;5.47;4.68;;;34.70;99.90;;;;;;5033470;28;20229;-65
2022/06/30 08:46:22;;;;;;;4.40;4.00;;;34.00;99.90;;;;;;5034712;28;20241;-65
2022/06/30 08:48:48;;;;;;;6.32;3.83;;;33.40;99.90;;;;;;5044883;28;20186;-64
2022/06/30 08:51:15;;;;;;;4.60;4.03;;;33.30;99.90;;;;;;5036232;28;20171;-66
2022/06/30 08:53:52;;;;;;;5.40;3.90;;;33.20;99.90;;;;;;5045944;28;20667;-65
2022/06/30 08:56:18;;;;;;;3.95;3.55;;;33.70;99.90;;;;;;5050578;28;20290;-65
2022/06/30 08:58:45;;;;;;;7.20;4.28;;;34.00;99.90;;;;;;5032991;28;20246;-66
2022/06/30 09:01:11;;;;;;;5.60;3.90;;;34.20;99.90;;;;;;5037169;28;20663;-65
2022/06/30 09:03:38;;;;;;;4.57;4.07;;;34.50;99.90;;;;;;5040684;28;20199;-65
2022/06/30 09:06:05;;;;;;;5.20;3.45;;;34.60;99.90;;;;;;5033076;28;20199;-65
2022/06/30 09:08:31;;;;;;;7.38;4.13;;;34.80;99.90;;;;;;5051793;28;20240;-65
2022/06/30 09:10:56;;;;;;;8.98;3.75;;;35.20;99.90;;;;;;5052363;28;20178;-65
2022/06/30 09:13:23;;;;;;;7.40;3.72;;;35.00;99.90;;;;;;5032813;28;20219;-66
2022/06/30 09:15:49;;;;;;;5.30;4.13;;;34.90;99.90;;;;;;5036269;28;20281;-65
2022/06/30 09:18:26;;;;;;;5.38;3.83;;;34.80;99.90;;;;;;5048907;28;20740;-65
2022/06/30 09:20:52;;;;;;;6.88;4.30;;;34.50;99.90;;;;;;5034390;28;20175;-65
2022/06/30 09:23:19;;;;;;;5.65;4.25;;;34.80;99.90;;;;;;5032725;28;20329;-65
2022/06/30 09:25:50;;;;;;;13.43;4.70;;;34.90;99.90;;;;;;4994734;28;1111129;-66
2022/06/30 09:28:36;;;;;;;8.05;4.00;;;34.80;99.90;;;;;;5033679;28;20179;-66
2022/06/30 09:31:02;;;;;;;5.25;4.57;;;34.90;99.90;;;;;;5033616;28;20175;-66
2022/06/30 09:33:35;;;;;;;6.43;4.47;;;35.10;99.90;;;;;;5033218;28;20740;-65
2022/06/30 09:36:27;;;;;;;6.93;4.20;;;34.80;99.90;;;;;;5033495;28;20629;-65
2022/06/30 09:39:03;;;;;;;8.57;4.88;;;34.70;99.90;;;;;;5033629;28;20180;-65
2022/06/30 09:41:35;;;;;;;9.68;4.78;;;34.20;99.90;;;;;;5033247;28;20183;-65
2022/06/30 09:44:08;;;;;;;9.95;4.28;;;34.40;99.90;;;;;;5033119;28;20175;-65
2022/06/30 09:46:36;;;;;;;7.65;4.60;;;34.30;99.90;;;;;;5033075;28;20234;-64
2022/06/30 09:49:05;;;;;;;8.85;4.28;;;34.50;99.90;;;;;;5033479;28;20167;-65
2022/06/30 09:51:31;;;;;;;6.10;3.58;;;34.40;99.90;;;;;;5031618;28;20190;-65
2022/06/30 09:54:05;;;;;;;9.05;3.70;;;34.60;99.90;;;;;;5032875;28;20203;-64
2022/06/30 09:56:30;;;;;;;7.88;3.78;;;34.50;99.90;;;;;;5033129;28;20195;-64
2022/06/30 09:58:56;;;;;;;7.30;3.65;;;34.10;99.90;;;;;;5033310;28;20190;-64
2022/06/30 10:01:22;;;;;;;7.45;3.60;;;34.00;99.90;;;;;;5033353;28;20671;-64
2022/06/30 10:03:59;;;;;;;7.07;4.38;;;33.70;99.90;;;;;;5032131;28;20210;-64
2022/06/30 10:06:25;;;;;;;7.68;4.15;;;33.50;99.90;;;;;;5032423;28;20207;-65
2022/06/30 10:08:53;;;;;;;7.00;4.25;;;33.40;99.90;;;;;;5033131;28;20316;-63
2022/06/30 10:11:19;;;;;;;8.77;4.18;;;33.30;99.90;;;;;;5033125;28;20668;-64
2022/06/30 10:13:47;;;;;;;4.72;4.28;;;33.20;99.90;;;;;;5051099;28;20206;-66
2022/06/30 10:16:15;;;;;;;5.50;4.00;;;32.90;99.90;;;;;;5052738;28;20189;-64
2022/06/30 10:18:41;;;;;;;6.93;3.85;;;32.80;99.90;;;;;;5034165;28;20711;-66
2022/06/30 10:21:08;;;;;;;4.72;4.03;;;32.90;99.90;;;;;;5032976;28;20183;-65
2022/06/30 10:23:34;;;;;;;5.32;4.03;;;33.30;99.90;;;;;;5048984;28;20194;-66
2022/06/30 10:26:00;;;;;;;4.18;3.78;;;33.20;99.90;;;;;;5053282;28;20206;-65
2022/06/30 10:28:27;;;;;;;5.35;4.20;;;32.80;99.90;;;;;;5037576;28;20245;-66
2022/06/30 10:31:21;;;;;;;7.65;4.07;;;32.40;99.90;;;;;;5033680;28;20167;-65
2022/06/30 10:34:23;;;;;;;5.43;4.43;;;32.10;99.90;;;;;;5050478;28;20743;-65
2022/06/30 10:37:18;;;;;;;7.30;4.40;;;32.10;99.90;;;;;;5052250;28;20236;-66
2022/06/30 10:40:00;;;;;;;4.38;3.97;;;32.40;99.90;;;;;;5005489;28;20193;-64
2022/06/30 10:42:43;;;;;;;4.68;3.53;;;32.50;99.90;;;;;;5053133;28;20679;-65
2022/06/30 10:45:56;;;;;;;4.25;3.80;;;32.30;99.90;;;;;;5052592;28;20206;-66
2022/06/30 10:48:22;;;;;;;9.18;3.75;;;32.40;99.90;;;;;;5010452;28;20193;-65
2022/06/30 10:50:50;;;;;;;4.22;3.78;;;32.50;99.90;;;;;;5033658;28;20187;-66
2022/06/30 10:53:35;;;;;;;5.22;3.90;;;33.00;99.90;;;;;;5053019;28;20241;-64
2022/06/30 10:56:02;;;;;;;3.67;3.38;;;33.40;99.90;;;;;;5048384;28;20551;-67
2022/06/30 10:58:27;;;;;;;4.80;3.15;;;33.80;99.90;;;;;;5032590;28;20638;-66
2022/06/30 11:01:10;;;;;;;8.38;3.70;;;33.60;99.90;;;;;;5033491;28;20195;-65
2022/06/30 11:03:37;;;;;;;4.28;3.63;;;33.70;99.90;;;;;;5052205;28;20178;-65
2022/06/30 11:06:09;;;;;;;4.57;3.60;;;33.70;99.90;;;;;;5051687;28;20232;-65
2022/06/30 11:08:50;;;;;;;5.60;3.95;;;33.40;99.90;;;;;;5052395;28;20178;-65
2022/06/30 11:11:22;;;;;;;3.83;3.42;;;33.10;99.90;;;;;;5048060;28;20262;-66
2022/06/30 11:14:11;;;;;;;5.10;3.90;;;32.60;99.90;;;;;;5032083;28;20302;-66
2022/06/30 11:16:38;;;;;;;3.92;3.45;;;32.30;99.90;;;;;;5038304;28;20187;-65
2022/06/30 11:19:16;;;;;;;4.43;3.70;;;31.80;99.90;;;;;;5052167;28;20521;-66
2022/06/30 11:21:43;;;;;;;5.72;4.20;;;31.80;99.90;;;;;;5045055;28;20167;-65
2022/06/30 11:24:11;;;;;;;4.18;3.78;;;31.90;99.90;;;;;;5031746;28;20175;-65
2022/06/30 11:29:26;;;;;;;3.80;3.50;;;31.40;99.90;;;;;;5045839;28;20186;-65
2022/06/30 11:31:58;;;;;;;4.60;4.05;;;31.40;99.90;;;;;;5031840;28;20171;-64
2022/06/30 11:34:24;;;;;;;4.10;3.72;;;31.70;99.90;;;;;;5038355;28;20174;-64
2022/06/30 11:36:50;;;;;;;4.80;3.30;;;31.80;99.90;;;;;;5051551;28;20591;-65
2022/06/30 11:39:20;;;;;;;4.22;3.50;;;32.30;99.90;;;;;;5033587;28;20183;-65
2022/06/30 11:41:57;;;;;;;6.20;3.60;;;32.90;99.90;;;;;;5031718;28;20171;-65
2022/06/30 11:44:33;;;;;;;4.93;4.40;;;33.80;99.90;;;;;;5049045;28;20189;-66
2022/06/30 11:47:04;;;;;;;6.38;4.10;;;33.90;99.90;;;;;;5051559;28;20189;-64
2022/06/30 11:49:48;;;;;;;8.55;4.00;;;33.90;99.90;;;;;;5032317;28;20187;-65
2022/06/30 11:52:28;;;;;;;6.85;3.83;;;33.80;99.90;;;;;;5031295;28;20203;-65
2022/06/30 11:55:05;;;;;;;6.45;3.88;;;34.00;99.90;;;;;;5050940;28;20202;-65
2022/06/30 11:57:38;;;;;;;5.13;4.63;;;34.10;99.90;;;;;;5044189;28;20175;-64
2022/06/30 12:00:10;;;;;;;4.00;3.40;;;34.20;99.90;;;;;;5031414;28;20194;-65
2022/06/30 12:02:38;;;;;;;4.35;3.95;;;34.40;99.90;;;;;;5037834;28;20175;-66
2022/06/30 12:05:07;;;;;;;5.72;4.10;;;34.80;99.90;;;;;;5050787;28;20376;-65
2022/06/30 12:07:36;;;;;;;7.55;3.47;;;34.80;99.90;;;;;;5052781;28;20225;-66
2022/06/30 12:10:05;;;;;;;4.75;3.90;;;35.00;99.90;;;;;;5051693;28;20182;-66
2022/06/30 12:12:32;;;;;;;4.15;3.75;;;35.10;99.90;;;;;;5045956;28;20409;-66
2022/06/30 12:15:00;;;;;;;10.43;3.90;;;35.20;99.90;;;;;;5032268;28;20226;-65
2022/06/30 12:17:32;;;;;;;5.00;3.33;;;35.30;99.90;;;;;;5049407;28;20601;-66
2022/06/30 12:19:58;;;;;;;4.97;3.53;;;35.10;99.90;;;;;;5035301;28;20164;-65
2022/06/30 12:22:24;;;;;;;4.13;3.63;;;34.80;99.90;;;;;;5036942;28;20248;-66
2022/06/30 12:24:51;;;;;;;5.60;3.92;;;34.80;99.90;;;;;;5054289;28;20205;-66
2022/06/30 12:27:32;;;;;;;4.10;3.60;;;34.90;99.90;;;;;;5034984;28;20172;-65
2022/06/30 12:30:29;;;;;;;5.85;3.92;;;35.00;99.90;;;;;;5035389;28;20551;-64
2022/06/30 12:32:55;;;;;;;4.25;3.83;;;35.10;99.90;;;;;;5037794;28;20749;-65
2022/06/30 12:35:23;;;;;;;6.18;3.78;;;35.00;99.90;;;;;;5037230;28;20202;-65
2022/06/30 12:37:49;;;;;;;5.88;4.20;;;34.50;99.90;;;;;;5053616;28;20167;-65
2022/06/30 12:40:16;;;;;;;4.25;3.85;;;34.20;99.90;;;;;;5034810;28;20203;-65
2022/06/30 12:42:57;;;;;;;7.10;4.00;;;34.30;99.90;;;;;;5050528;28;20648;-65
2022/06/30 12:45:45;;;;;;;3.83;3.42;;;34.20;99.90;;;;;;5054178;28;20580;-65
2022/06/30 12:48:14;;;;;;;4.20;3.80;;;34.40;99.90;;;;;;5035117;28;20260;-65
2022/06/30 12:50:41;;;;;;;3.38;3.17;;;34.20;99.90;;;;;;5034460;28;20803;-65
2022/06/30 12:53:22;;;;;;;3.63;3.33;;;34.50;99.90;;;;;;5052405;28;20719;-66
2022/06/30 12:56:08;;;;;;;4.95;4.38;;;34.30;99.90;;;;;;5054098;28;20558;-66
2022/06/30 12:58:53;;;;;;;10.40;3.58;;;34.40;99.90;;;;;;5035514;28;20270;-65